createdAt,value
2022-08-17T00:02:13.251Z,10.47
2022-08-17T00:05:32.311Z,9.80
2022-08-17T00:08:39.501Z,9.87
2022-08-17T00:12:41.280Z,9.90
2022-08-17T00:15:11.269Z,9.57
2022-08-17T00:18:53.877Z,10.17
2022-08-17T00:22:32.890Z,9.37
2022-08-17T00:25:13.080Z,9.70
2022-08-17T00:28:17.777Z,9.50
2022-08-17T00:31:22.950Z,8.93
2022-08-17T00:34:27.922Z,9.47
2022-08-17T00:37:31.709Z,9.20
2022-08-17T00:40:44.475Z,10.27
2022-08-17T00:43:51.970Z,9.63
2022-08-17T00:46:56.150Z,9.17
2022-08-17T00:49:59.918Z,9.23
2022-08-17T00:53:05.075Z,9.03
2022-08-17T00:56:28.906Z,9.30
2022-08-17T00:59:37.828Z,9.63
2022-08-17T01:02:46.458Z,9.03
2022-08-17T01:05:52.823Z,9.03
2022-08-17T01:08:59.441Z,8.93
2022-08-17T01:12:06.694Z,8.73
2022-08-17T01:15:12.702Z,8.60
2022-08-17T01:18:17.069Z,9.07
2022-08-17T01:21:27.936Z,9.13
2022-08-17T01:24:34.179Z,9.00
2022-08-17T01:27:39.464Z,8.90
2022-08-17T01:30:58.895Z,9.57
2022-08-17T01:34:09.204Z,8.70
2022-08-17T01:37:13.938Z,8.30
2022-08-17T01:40:24.278Z,8.30
2022-08-17T01:43:33.057Z,8.83
2022-08-17T01:46:38.343Z,9.17
2022-08-17T01:49:42.031Z,9.20
2022-08-17T01:52:49.811Z,9.07
2022-08-17T01:55:59.133Z,9.47
2022-08-17T01:59:02.951Z,9.20
2022-08-17T02:02:07.572Z,9.13
2022-08-17T02:05:11.263Z,9.20
2022-08-17T02:08:19.906Z,8.20
2022-08-17T02:11:25.569Z,9.07
2022-08-17T02:14:29.654Z,7.50
2022-08-17T02:17:33.779Z,7.17
2022-08-17T02:20:42.474Z,7.80
2022-08-17T02:23:50.338Z,7.50
2022-08-17T02:26:55.517Z,7.37
2022-08-17T02:29:59.832Z,8.07
2022-08-17T02:33:06.407Z,8.60
2022-08-17T02:36:14.245Z,8.33
2022-08-17T02:39:18.594Z,8.77
2022-08-17T02:42:28.627Z,8.80
2022-08-17T02:45:32.310Z,8.20
2022-08-17T02:48:35.996Z,8.23
2022-08-17T02:51:39.752Z,8.73
2022-08-17T02:54:43.557Z,8.53
2022-08-17T02:57:48.887Z,8.73
2022-08-17T03:00:52.616Z,8.17
2022-08-17T03:03:59.849Z,8.40
2022-08-17T03:07:04.405Z,8.07
2022-08-17T03:10:09.561Z,8.23
2022-08-17T03:13:15.735Z,8.20
2022-08-17T03:16:19.471Z,8.17
2022-08-17T03:19:23.279Z,8.90
2022-08-17T03:22:36.842Z,8.67
2022-08-17T03:25:44.064Z,8.87
2022-08-17T03:28:49.310Z,8.87
2022-08-17T03:31:53.457Z,9.47
2022-08-17T03:35:00.538Z,8.30
2022-08-17T03:38:05.432Z,8.70
2022-08-17T03:41:09.171Z,8.97
2022-08-17T03:44:14.318Z,8.53
2022-08-17T03:47:41.300Z,9.03
2022-08-17T03:51:05.245Z,8.83
2022-08-17T03:54:27.857Z,8.27
2022-08-17T03:57:32.203Z,9.00
2022-08-17T04:00:39.733Z,9.07
2022-08-17T04:03:43.746Z,8.50
2022-08-17T04:06:48.434Z,9.00
2022-08-17T04:09:52.390Z,9.10
2022-08-17T04:12:56.472Z,8.63
2022-08-17T04:16:01.993Z,8.87
2022-08-17T04:19:06.918Z,8.30
2022-08-17T04:22:10.693Z,8.40
2022-08-17T04:25:36.453Z,8.87
2022-08-17T04:28:40.281Z,8.60
2022-08-17T04:31:45.958Z,8.60
2022-08-17T04:34:49.800Z,8.13
2022-08-17T04:37:54.177Z,7.83
2022-08-17T04:41:16.444Z,7.80
2022-08-17T04:44:36.772Z,8.27
2022-08-17T04:47:43.061Z,7.33
2022-08-17T04:50:48.623Z,8.17
2022-08-17T04:53:54.902Z,7.87
2022-08-17T04:56:58.852Z,7.83
2022-08-17T05:00:03.218Z,8.10
2022-08-17T05:03:08.416Z,8.30
2022-08-17T05:06:12.201Z,8.03
2022-08-17T05:09:17.467Z,8.30
2022-08-17T05:12:21.214Z,8.80
2022-08-17T05:15:25.008Z,8.57
2022-08-17T05:18:32.025Z,8.70
2022-08-17T05:21:35.816Z,8.47
2022-08-17T05:24:43.490Z,8.07
2022-08-17T05:27:59.168Z,8.77
2022-08-17T05:31:06.312Z,8.87
2022-08-17T05:34:11.578Z,8.57
2022-08-17T05:37:15.449Z,8.30
2022-08-17T05:40:20.853Z,8.37
2022-08-17T05:43:27.129Z,8.10
2022-08-17T05:46:36.884Z,8.93
2022-08-17T05:49:42.160Z,8.47
2022-08-17T05:52:51.451Z,8.90
2022-08-17T05:56:29.511Z,8.77
2022-08-17T05:59:56.616Z,9.23
2022-08-17T06:03:27.101Z,9.03
2022-08-17T06:06:41.513Z,9.27
2022-08-17T06:09:56.110Z,8.87
2022-08-17T06:13:13.504Z,9.80
2022-08-17T06:16:37.897Z,9.50
2022-08-17T06:19:48.834Z,9.00
2022-08-17T06:23:04.023Z,8.73
2022-08-17T06:26:15.502Z,8.43
2022-08-17T06:29:33.529Z,9.10
2022-08-17T06:32:38.262Z,8.33
2022-08-17T06:35:53.125Z,8.07
2022-08-17T06:39:14.457Z,8.53
2022-08-17T06:42:54.882Z,8.73
2022-08-17T06:46:02.285Z,7.87
2022-08-17T06:49:19.865Z,8.07
2022-08-17T06:52:46.297Z,7.70
2022-08-17T06:55:59.929Z,8.33
2022-08-17T06:59:05.422Z,7.87
2022-08-17T07:02:14.080Z,7.43
2022-08-17T07:05:20.949Z,8.17
2022-08-17T07:08:35.285Z,7.47
2022-08-17T07:11:49.112Z,7.40
2022-08-17T07:15:10.013Z,6.67
2022-08-17T07:18:15.635Z,7.43
2022-08-17T07:21:33.437Z,7.37
2022-08-17T07:24:47.277Z,7.07
2022-08-17T07:27:56.005Z,7.80
2022-08-17T07:31:00.019Z,7.30
2022-08-17T07:34:14.555Z,7.57
2022-08-17T07:37:20.617Z,7.20
2022-08-17T07:40:31.535Z,7.27
2022-08-17T07:43:46.140Z,7.07
2022-08-17T07:47:09.458Z,7.10
2022-08-17T07:50:28.954Z,7.07
2022-08-17T07:53:33.042Z,7.40
2022-08-17T07:56:44.477Z,7.73
2022-08-17T08:00:19.563Z,7.20
2022-08-17T08:03:34.076Z,7.10
2022-08-17T08:06:52.719Z,7.17
2022-08-17T08:10:07.013Z,7.57
2022-08-17T08:13:14.630Z,7.00
2022-08-17T08:16:30.650Z,6.77
2022-08-17T08:19:37.612Z,6.80
2022-08-17T08:22:51.354Z,6.90
2022-08-17T08:26:13.152Z,6.60
2022-08-17T08:29:28.413Z,6.87
2022-08-17T08:32:48.623Z,6.90
2022-08-17T08:35:58.948Z,7.10
2022-08-17T08:39:07.441Z,6.47
2022-08-17T08:42:23.846Z,6.83
2022-08-17T08:45:39.191Z,6.73
2022-08-17T08:49:11.997Z,6.60
2022-08-17T08:52:30.902Z,6.50
2022-08-17T08:55:54.266Z,6.40
2022-08-17T08:59:07.293Z,6.93
2022-08-17T09:02:24.848Z,6.80
2022-08-17T09:05:44.041Z,6.43
2022-08-17T09:09:03.006Z,6.93
2022-08-17T09:12:21.348Z,6.63
2022-08-17T09:15:29.837Z,6.30
2022-08-17T09:19:03.386Z,6.63
2022-08-17T09:22:12.057Z,6.10
2022-08-17T09:25:18.535Z,6.07
2022-08-17T09:28:28.844Z,6.63
2022-08-17T09:31:49.257Z,6.00
2022-08-17T09:35:11.370Z,6.17
2022-08-17T09:38:31.850Z,6.20
2022-08-17T09:41:48.680Z,6.20
2022-08-17T09:45:04.134Z,6.60
2022-08-17T09:48:18.826Z,6.60
2022-08-17T09:51:32.136Z,6.30
2022-08-17T09:54:40.657Z,6.07
2022-08-17T09:58:04.972Z,6.10
2022-08-17T10:01:21.240Z,6.43
2022-08-17T10:04:39.728Z,6.33
2022-08-17T10:07:48.405Z,8.80
2022-08-17T10:11:05.686Z,6.50
2022-08-17T10:14:37.231Z,6.37
2022-08-17T10:17:47.712Z,6.27
2022-08-17T10:21:21.906Z,6.50
2022-08-17T10:25:21.343Z,5.93
2022-08-17T10:28:25.874Z,6.50
2022-08-17T10:31:39.982Z,6.07
2022-08-17T10:34:56.306Z,5.93
2022-08-17T10:38:21.548Z,7.10
2022-08-17T10:41:36.843Z,6.07
2022-08-17T10:44:51.348Z,5.63
2022-08-17T10:48:05.156Z,7.00
2022-08-17T10:51:12.795Z,5.73
2022-08-17T10:54:38.909Z,6.20
2022-08-17T10:57:51.911Z,5.83
2022-08-17T11:01:02.301Z,6.10
2022-08-17T11:04:25.063Z,6.50
2022-08-17T11:07:46.334Z,7.13
2022-08-17T11:11:09.756Z,6.63
2022-08-17T11:14:36.620Z,5.60
2022-08-17T11:18:17.860Z,6.60
2022-08-17T11:21:47.575Z,6.90
2022-08-17T11:24:54.710Z,6.27
2022-08-17T11:28:09.329Z,6.33
2022-08-17T11:31:37.790Z,6.30
2022-08-17T11:34:44.934Z,5.53
2022-08-17T11:38:00.065Z,5.93
2022-08-17T11:41:22.357Z,7.23
2022-08-17T11:44:47.941Z,6.13
2022-08-17T11:48:27.724Z,6.10
2022-08-17T11:52:04.985Z,6.00
2022-08-17T11:55:37.474Z,6.03
2022-08-17T11:58:45.931Z,6.20
2022-08-17T12:01:55.793Z,6.53
2022-08-17T12:05:12.323Z,5.77
2022-08-17T12:08:21.622Z,6.27
2022-08-17T12:12:11.042Z,6.00
2022-08-17T12:15:10.076Z,7.57
2022-08-17T12:18:21.130Z,6.00
2022-08-17T12:21:37.446Z,6.53
2022-08-17T12:24:55.695Z,5.93
2022-08-17T12:28:05.623Z,6.83
2022-08-17T12:31:18.991Z,6.80
2022-08-17T12:34:27.656Z,6.07
2022-08-17T12:37:35.668Z,5.80
2022-08-17T12:40:39.477Z,5.90
2022-08-17T12:43:44.730Z,5.60
2022-08-17T12:46:56.131Z,6.20
2022-08-17T12:50:28.478Z,6.87
2022-08-17T12:53:35.197Z,6.40
2022-08-17T12:56:40.328Z,6.13
2022-08-17T12:59:50.139Z,6.30
2022-08-17T13:02:56.327Z,5.90
2022-08-17T13:06:02.274Z,6.00
2022-08-17T13:09:11.663Z,5.90
2022-08-17T13:12:15.408Z,5.80
2022-08-17T13:15:27.488Z,5.77
2022-08-17T13:18:41.823Z,6.10
2022-08-17T13:21:47.887Z,5.63
2022-08-17T13:24:54.477Z,5.50
2022-08-17T13:27:58.812Z,6.00
2022-08-17T13:31:52.076Z,5.80
2022-08-17T13:35:14.381Z,5.47
2022-08-17T13:38:40.549Z,5.83
2022-08-17T13:41:44.581Z,5.63
2022-08-17T13:44:48.636Z,5.60
2022-08-17T13:48:06.425Z,5.63
2022-08-17T13:51:18.389Z,6.17
2022-08-17T13:54:27.876Z,5.90
2022-08-17T13:57:32.197Z,5.70
2022-08-17T14:00:37.451Z,6.27
2022-08-17T14:03:42.599Z,5.97
2022-08-17T14:06:54.027Z,6.20
2022-08-17T14:10:01.500Z,6.40
2022-08-17T14:13:05.452Z,5.93
2022-08-17T14:16:09.307Z,6.20
2022-08-17T14:19:15.877Z,6.23
2022-08-17T14:22:23.741Z,7.00
2022-08-17T14:25:29.957Z,6.53
2022-08-17T14:28:34.090Z,7.10
2022-08-17T14:31:40.318Z,6.63
2022-08-17T14:34:49.569Z,5.90
2022-08-17T14:37:54.120Z,6.23
2022-08-17T14:40:58.559Z,6.73
2022-08-17T14:44:02.574Z,6.90
2022-08-17T14:47:07.197Z,6.83
2022-08-17T14:50:19.534Z,7.07
2022-08-17T14:53:23.360Z,7.33
2022-08-17T14:56:27.365Z,9.43
2022-08-17T14:59:35.625Z,7.93
2022-08-17T15:02:48.259Z,7.80
2022-08-17T15:05:53.907Z,8.00
2022-08-17T15:08:57.626Z,8.47
2022-08-17T15:12:03.096Z,8.97
2022-08-17T15:15:08.540Z,8.03
2022-08-17T15:18:12.312Z,7.90
2022-08-17T15:21:18.200Z,8.17
2022-08-17T15:24:22.022Z,8.40
2022-08-17T15:27:32.590Z,8.47
2022-08-17T15:30:36.960Z,8.13
2022-08-17T15:33:40.996Z,8.20
2022-08-17T15:36:49.373Z,7.97
2022-08-17T15:39:53.781Z,8.23
2022-08-17T15:42:57.924Z,8.23
2022-08-17T15:46:04.807Z,8.53
2022-08-17T15:49:09.104Z,8.33
2022-08-17T15:52:19.700Z,8.00
2022-08-17T15:55:24.252Z,9.10
2022-08-17T15:58:32.253Z,8.57
2022-08-17T16:02:20.012Z,8.33
2022-08-17T16:05:05.824Z,8.23
2022-08-17T16:08:20.728Z,8.47
2022-08-17T16:11:25.294Z,8.17
2022-08-17T16:14:34.829Z,8.43
2022-08-17T16:17:40.765Z,8.20
2022-08-17T16:20:44.575Z,8.27
2022-08-17T16:23:51.474Z,8.30
2022-08-17T16:26:55.597Z,7.73
2022-08-17T16:29:59.395Z,8.10
2022-08-17T16:33:03.575Z,7.47
2022-08-17T16:36:08.364Z,7.53
2022-08-17T16:39:14.888Z,7.87
2022-08-17T16:42:28.225Z,7.40
2022-08-17T16:45:40.162Z,7.60
2022-08-17T16:48:46.374Z,7.43
2022-08-17T16:51:50.183Z,8.07
2022-08-17T16:54:56.511Z,8.07
2022-08-17T16:58:00.876Z,7.83
2022-08-17T17:01:05.521Z,8.30
2022-08-17T17:04:14.719Z,8.37
2022-08-17T17:07:38.879Z,8.90
2022-08-17T17:10:47.090Z,8.53
2022-08-17T17:13:55.223Z,9.10
2022-08-17T17:17:04.510Z,7.80
2022-08-17T17:20:13.165Z,8.63
2022-08-17T17:23:31.393Z,8.27
2022-08-17T17:26:52.058Z,8.60
2022-08-17T17:30:08.662Z,7.97
2022-08-17T17:33:17.424Z,8.63
2022-08-17T17:36:27.267Z,8.40
2022-08-17T17:39:41.668Z,8.90
2022-08-17T17:42:51.340Z,8.20
2022-08-17T17:45:58.696Z,8.37
2022-08-17T17:49:23.326Z,8.43
2022-08-17T17:52:36.260Z,7.73
2022-08-17T17:55:59.539Z,7.60
2022-08-17T17:59:15.101Z,7.80
2022-08-17T18:02:52.625Z,7.37
2022-08-17T18:06:09.745Z,7.20
2022-08-17T18:09:33.913Z,7.33
2022-08-17T18:12:44.897Z,11.73
2022-08-17T18:15:54.067Z,7.83
2022-08-17T18:18:58.051Z,8.40
2022-08-17T18:22:08.300Z,7.87
2022-08-17T18:25:40.337Z,8.17
2022-08-17T18:28:44.333Z,7.27
2022-08-17T18:31:52.608Z,7.50
2022-08-17T18:34:59.644Z,7.87
2022-08-17T18:38:22.556Z,8.93
2022-08-17T18:41:30.435Z,8.17
2022-08-17T18:44:45.271Z,7.93
2022-08-17T18:47:55.987Z,7.53
2022-08-17T18:51:02.018Z,7.53
2022-08-17T18:54:15.203Z,7.40
2022-08-17T18:57:31.012Z,7.60
2022-08-17T19:00:38.393Z,7.47
2022-08-17T19:03:46.504Z,7.47
2022-08-17T19:07:04.667Z,7.87
2022-08-17T19:10:21.801Z,7.60
2022-08-17T19:13:32.408Z,7.20
2022-08-17T19:16:49.168Z,7.87
2022-08-17T19:19:59.063Z,7.73
2022-08-17T19:23:16.634Z,7.73
2022-08-17T19:26:53.258Z,7.63
2022-08-17T19:29:55.916Z,7.10
2022-08-17T19:32:59.732Z,6.63
2022-08-17T19:36:08.784Z,7.00
2022-08-17T19:39:26.563Z,7.27
2022-08-17T19:42:53.844Z,6.40
2022-08-17T19:46:06.142Z,6.60
2022-08-17T19:49:17.129Z,7.03
2022-08-17T19:52:40.171Z,6.80
2022-08-17T19:55:52.354Z,6.83
2022-08-17T19:59:02.653Z,7.67
2022-08-17T20:02:23.181Z,6.20
2022-08-17T20:05:30.199Z,6.87
2022-08-17T20:08:39.867Z,6.60
2022-08-17T20:11:48.541Z,6.87
2022-08-17T20:14:57.196Z,7.00
2022-08-17T20:18:03.430Z,6.30
2022-08-17T20:21:20.475Z,6.20
2022-08-17T20:24:33.609Z,6.63
2022-08-17T20:27:50.806Z,7.17
2022-08-17T20:30:55.334Z,6.90
2022-08-17T20:34:37.046Z,6.00
2022-08-17T20:37:44.675Z,6.80
2022-08-17T20:41:13.796Z,6.40
2022-08-17T20:44:33.635Z,6.37
2022-08-17T20:48:07.486Z,7.57
2022-08-17T20:51:24.363Z,6.37
2022-08-17T20:54:50.482Z,6.43
2022-08-17T20:57:54.570Z,6.77
2022-08-17T21:01:13.021Z,6.27
2022-08-17T21:04:44.773Z,6.03
2022-08-17T21:07:58.116Z,5.63
2022-08-17T21:11:20.412Z,6.77
2022-08-17T21:14:58.063Z,6.37
2022-08-17T21:18:10.475Z,6.10
2022-08-17T21:21:25.132Z,6.07
2022-08-17T21:24:43.515Z,6.30
2022-08-17T21:27:58.572Z,6.20
2022-08-17T21:31:09.206Z,6.00
2022-08-17T21:34:30.091Z,5.67
2022-08-17T21:37:41.905Z,6.00
2022-08-17T21:40:50.080Z,5.77
2022-08-17T21:43:57.208Z,5.90
2022-08-17T21:47:15.917Z,6.07
2022-08-17T21:50:22.421Z,5.73
2022-08-17T21:53:33.315Z,6.00
2022-08-17T21:56:41.739Z,5.77
2022-08-17T21:59:45.711Z,5.87
2022-08-17T22:02:55.915Z,5.80
2022-08-17T22:05:59.682Z,6.40
2022-08-17T22:09:13.734Z,5.73
2022-08-17T22:12:20.522Z,6.30
2022-08-17T22:15:24.402Z,6.27
2022-08-17T22:18:29.252Z,5.83
2022-08-17T22:21:33.061Z,5.17
2022-08-17T22:24:37.358Z,6.00
2022-08-17T22:27:56.478Z,6.07
2022-08-17T22:31:01.665Z,5.53
2022-08-17T22:34:13.668Z,5.80
2022-08-17T22:37:27.486Z,5.70
2022-08-17T22:40:35.037Z,5.70
2022-08-17T22:43:43.080Z,5.53
2022-08-17T22:46:58.867Z,5.50
2022-08-17T22:50:05.952Z,5.60
2022-08-17T22:53:33.633Z,5.63
2022-08-17T22:56:55.542Z,5.53
2022-08-17T23:00:01.093Z,5.77
2022-08-17T23:03:10.537Z,5.60
2022-08-17T23:06:14.295Z,6.40
2022-08-17T23:09:18.112Z,6.20
2022-08-17T23:12:27.416Z,6.40
2022-08-17T23:15:34.000Z,6.20
2022-08-17T23:18:37.951Z,6.17
2022-08-17T23:21:44.782Z,6.53
2022-08-17T23:24:50.676Z,6.93
2022-08-17T23:27:54.543Z,6.97
2022-08-17T23:30:59.768Z,7.00
2022-08-17T23:34:04.930Z,7.30
2022-08-17T23:37:12.889Z,7.30
2022-08-17T23:40:16.873Z,7.47
2022-08-17T23:43:25.534Z,7.27
2022-08-17T23:46:32.792Z,7.67
2022-08-17T23:49:37.476Z,7.57
2022-08-17T23:52:42.434Z,7.20
2022-08-17T23:55:46.178Z,8.27
2022-08-17T23:59:08.326Z,7.17
